createdAt,value
2022-09-13T00:00:37.688Z,150429.44
2022-09-13T00:01:39.815Z,150356.28
2022-09-13T00:02:41.972Z,150351.41
2022-09-13T00:03:44.506Z,150359.91
2022-09-13T00:04:46.641Z,150353.84
2022-09-13T00:05:49.166Z,150375.75
2022-09-13T00:06:51.340Z,150367.22
2022-09-13T00:07:53.679Z,150350.19
2022-09-13T00:08:56.023Z,150346.50
2022-09-13T00:09:58.122Z,150294.09
2022-09-13T00:11:00.365Z,150318.50
2022-09-13T00:12:02.657Z,150340.41
2022-09-13T00:13:06.896Z,150341.63
2022-09-13T00:14:09.018Z,150312.34
2022-09-13T00:15:11.908Z,150344.06
2022-09-13T00:16:16.098Z,149426.25
2022-09-13T00:17:18.411Z,137696.28
2022-09-13T00:18:20.583Z,111884.03
2022-09-13T00:19:22.702Z,97015.81
2022-09-13T00:20:24.829Z,85576.44
2022-09-13T00:21:27.844Z,83225.78
2022-09-13T00:22:30.023Z,82221.78
2022-09-13T00:23:32.172Z,84572.59
2022-09-13T00:24:34.336Z,57438.03
2022-09-13T00:25:36.807Z,54769.16
2022-09-13T00:26:38.953Z,50103.34
2022-09-13T00:27:41.065Z,57779.75
2022-09-13T00:28:45.361Z,58114.31
2022-09-13T00:29:47.640Z,61451.44
2022-09-13T00:30:52.255Z,51100.66
2022-09-13T00:31:54.570Z,53104.94
2022-09-13T00:32:56.969Z,53105.78
2022-09-13T00:34:00.802Z,54115.66
2022-09-13T00:35:05.337Z,52449.66
2022-09-13T00:36:09.479Z,48782.50
2022-09-13T00:37:11.594Z,49434.88
2022-09-13T00:38:13.736Z,52091.63
2022-09-13T00:39:15.852Z,47423.56
2022-09-13T00:40:18.155Z,46758.47
2022-09-13T00:41:21.501Z,44751.75
2022-09-13T00:42:32.782Z,32163.78
2022-09-13T00:43:42.918Z,33495.66
2022-09-13T00:45:00.629Z,42140.84
2022-09-13T00:46:02.803Z,48762.38
2022-09-13T00:47:05.284Z,43776.16
2022-09-13T00:48:15.935Z,36807.25
2022-09-13T00:49:22.988Z,35136.31
2022-09-13T00:50:38.416Z,26865.75
2022-09-13T00:51:46.318Z,33480.34
2022-09-13T00:52:55.908Z,36139.88
2022-09-13T00:53:59.840Z,38778.19
2022-09-13T00:55:08.855Z,29176.59
2022-09-13T00:56:21.434Z,31835.56
2022-09-13T00:57:24.739Z,37783.28
2022-09-13T00:58:29.271Z,34462.56
2022-09-13T00:59:52.842Z,33489.53
2022-09-13T01:00:59.834Z,35139.81
2022-09-13T01:02:04.516Z,40451.69
2022-09-13T01:03:11.871Z,32156.22
2022-09-13T01:04:15.320Z,28832.31
2022-09-13T01:05:20.798Z,27517.13
2022-09-13T01:06:29.386Z,30504.72
2022-09-13T01:07:31.663Z,34135.13
2022-09-13T01:08:36.283Z,33482.63
2022-09-13T01:09:44.162Z,26529.47
2022-09-13T01:10:49.491Z,33142.16
2022-09-13T01:12:04.612Z,26202.38
2022-09-13T01:13:14.866Z,27186.72
2022-09-13T01:14:18.849Z,26854.69
2022-09-13T01:15:21.061Z,31483.66
2022-09-13T01:16:23.608Z,31481.75
2022-09-13T01:17:28.386Z,30502.88
2022-09-13T01:18:30.565Z,32475.19
2022-09-13T01:19:32.778Z,37451.34
2022-09-13T01:20:58.684Z,32497.41
2022-09-13T01:22:06.887Z,35131.50
2022-09-13T01:23:45.915Z,30173.53
2022-09-13T01:25:03.404Z,30175.81
2022-09-13T01:26:44.080Z,31840.16
2022-09-13T01:28:03.681Z,30510.25
2022-09-13T01:29:41.017Z,30177.16
2022-09-13T01:31:03.883Z,22883.72
2022-09-13T01:32:11.891Z,28171.72
2022-09-13T01:33:52.490Z,28525.25
2022-09-13T01:35:07.438Z,34486.50
2022-09-13T01:36:15.727Z,35811.47
2022-09-13T01:37:38.046Z,31831.22
2022-09-13T01:38:49.490Z,30842.25
2022-09-13T01:40:05.739Z,32830.59
2022-09-13T01:41:31.641Z,36814.28
2022-09-13T01:42:47.158Z,42134.00
2022-09-13T01:44:13.426Z,43463.66
2022-09-13T01:45:33.955Z,43435.06
2022-09-13T01:46:57.933Z,49452.19
2022-09-13T01:48:12.232Z,54113.56
2022-09-13T01:49:25.626Z,54450.75
2022-09-13T01:50:51.902Z,57451.53
2022-09-13T01:51:57.625Z,61750.41
2022-09-13T01:53:32.182Z,59102.44
2022-09-13T01:54:40.819Z,60741.56
2022-09-13T01:55:54.000Z,59778.31
2022-09-13T01:57:06.006Z,57442.53
2022-09-13T01:58:21.366Z,59127.50
2022-09-13T01:59:37.329Z,61429.25
2022-09-13T02:00:48.307Z,55436.31
2022-09-13T02:02:02.208Z,55122.31
2022-09-13T02:03:14.269Z,57118.78
2022-09-13T02:04:27.228Z,59468.34
2022-09-13T02:05:40.532Z,64811.22
2022-09-13T02:07:03.798Z,68510.50
2022-09-13T02:08:13.233Z,64819.38
2022-09-13T02:09:25.027Z,62786.97
2022-09-13T02:10:33.942Z,53113.66
2022-09-13T02:11:39.974Z,58464.50
2022-09-13T02:12:43.657Z,64148.16
2022-09-13T02:14:02.071Z,65171.72
2022-09-13T02:15:14.892Z,65495.91
2022-09-13T02:16:26.425Z,62477.00
2022-09-13T02:17:34.228Z,64153.22
2022-09-13T02:18:41.183Z,64490.59
2022-09-13T02:20:08.979Z,64160.28
2022-09-13T02:21:17.132Z,64830.09
2022-09-13T02:22:25.477Z,63144.88
2022-09-13T02:23:38.039Z,64158.25
2022-09-13T02:24:45.273Z,64489.59
2022-09-13T02:25:49.730Z,63797.78
2022-09-13T02:26:54.623Z,60793.66
2022-09-13T02:28:02.752Z,59460.88
2022-09-13T02:29:10.321Z,62484.38
2022-09-13T02:30:14.369Z,63123.53
2022-09-13T02:31:29.984Z,61145.41
2022-09-13T02:32:38.367Z,62144.81
2022-09-13T02:33:47.386Z,63150.38
2022-09-13T02:34:56.610Z,63830.44
2022-09-13T02:36:10.003Z,60131.97
2022-09-13T02:37:13.210Z,61114.16
2022-09-13T02:38:24.498Z,52796.47
2022-09-13T02:39:30.556Z,58459.91
2022-09-13T02:40:40.583Z,57803.75
2022-09-13T02:42:00.362Z,60146.13
2022-09-13T02:43:10.673Z,58141.66
2022-09-13T02:44:28.411Z,58482.38
2022-09-13T02:45:42.394Z,55469.69
2022-09-13T02:46:44.516Z,54098.75
2022-09-13T02:48:00.211Z,49471.44
2022-09-13T02:49:18.511Z,52133.91
2022-09-13T02:50:48.728Z,56483.47
2022-09-13T02:51:57.265Z,52464.38
2022-09-13T02:53:17.773Z,55446.72
2022-09-13T02:54:31.176Z,51131.34
2022-09-13T02:55:54.413Z,51800.63
2022-09-13T02:57:19.680Z,48797.69
2022-09-13T02:58:36.005Z,48139.25
2022-09-13T02:59:38.208Z,50111.94
2022-09-13T03:00:41.346Z,46117.81
2022-09-13T03:01:55.065Z,46807.50
2022-09-13T03:03:00.040Z,48129.91
2022-09-13T03:04:03.021Z,49452.59
2022-09-13T03:05:05.633Z,45456.84
2022-09-13T03:06:08.114Z,45455.78
2022-09-13T03:07:12.009Z,46137.88
2022-09-13T03:08:16.345Z,48808.31
2022-09-13T03:09:19.760Z,49469.13
2022-09-13T03:10:23.207Z,49789.06
2022-09-13T03:12:07.058Z,47818.91
2022-09-13T03:13:44.735Z,50477.16
2022-09-13T03:15:22.343Z,46477.53
2022-09-13T03:16:51.565Z,45823.91
2022-09-13T03:18:02.536Z,42825.88
2022-09-13T03:19:23.721Z,51155.66
2022-09-13T03:20:34.734Z,50487.41
2022-09-13T03:21:55.204Z,49160.16
2022-09-13T03:23:17.734Z,46143.59
2022-09-13T03:24:28.912Z,40488.47
2022-09-13T03:26:12.290Z,42826.53
2022-09-13T03:27:34.629Z,40828.38
2022-09-13T03:28:54.882Z,41146.91
2022-09-13T03:30:06.665Z,32849.31
2022-09-13T03:31:20.356Z,37831.44
2022-09-13T03:32:57.256Z,40829.97
2022-09-13T03:34:10.489Z,42496.88
2022-09-13T03:35:34.628Z,46837.69
2022-09-13T03:36:46.193Z,44153.91
2022-09-13T03:38:03.780Z,42160.34
2022-09-13T03:39:37.090Z,42163.25
2022-09-13T03:41:09.007Z,41825.84
2022-09-13T03:42:34.372Z,44168.25
2022-09-13T03:43:43.140Z,46152.91
2022-09-13T03:44:49.244Z,42826.22
2022-09-13T03:46:01.108Z,43493.56
2022-09-13T03:47:36.507Z,40508.44
2022-09-13T03:48:41.566Z,40160.47
2022-09-13T03:49:44.427Z,39811.88
2022-09-13T03:50:48.822Z,41487.91
2022-09-13T03:51:52.837Z,42818.28
2022-09-13T03:53:03.469Z,39503.69
2022-09-13T03:54:15.017Z,41168.78
2022-09-13T03:55:21.169Z,38160.06
2022-09-13T03:56:23.298Z,34824.22
2022-09-13T03:57:25.391Z,34167.13
2022-09-13T03:58:27.614Z,34495.44
2022-09-13T03:59:29.707Z,33169.91
2022-09-13T04:00:32.068Z,28854.03
2022-09-13T04:01:34.291Z,27862.66
2022-09-13T04:02:36.887Z,24876.00
2022-09-13T04:03:39.627Z,22238.66
2022-09-13T04:04:43.113Z,24229.75
2022-09-13T04:05:46.352Z,28869.44
2022-09-13T04:06:48.550Z,24546.78
2022-09-13T04:07:50.659Z,18268.16
2022-09-13T04:08:52.756Z,15298.81
2022-09-13T04:09:54.894Z,14639.44
2022-09-13T04:10:57.091Z,16618.22
2022-09-13T04:11:59.248Z,15630.94
2022-09-13T04:13:01.837Z,19266.81
2022-09-13T04:14:05.321Z,20588.59
2022-09-13T04:15:08.305Z,21584.63
2022-09-13T04:16:10.450Z,18602.47
2022-09-13T04:17:13.660Z,18278.66
2022-09-13T04:18:16.281Z,19267.78
2022-09-13T04:19:18.441Z,16292.59
2022-09-13T04:20:20.937Z,15300.50
2022-09-13T04:21:23.079Z,12662.22
2022-09-13T04:22:25.208Z,15301.38
2022-09-13T04:23:29.437Z,13986.09
2022-09-13T04:24:31.694Z,14310.84
2022-09-13T04:25:33.961Z,16294.91
2022-09-13T04:26:36.166Z,17284.47
2022-09-13T04:27:38.320Z,19268.75
2022-09-13T04:28:40.495Z,20261.94
2022-09-13T04:30:22.010Z,17294.69
2022-09-13T04:31:31.791Z,18933.97
2022-09-13T04:32:33.950Z,18274.84
2022-09-13T04:33:36.921Z,16623.75
2022-09-13T04:34:39.233Z,15302.75
2022-09-13T04:35:41.536Z,15962.28
2022-09-13T04:36:43.654Z,15630.94
2022-09-13T04:37:46.293Z,15303.09
2022-09-13T04:38:48.472Z,16950.44
2022-09-13T04:39:50.693Z,12331.16
2022-09-13T04:40:54.882Z,12337.41
2022-09-13T04:41:57.232Z,16624.59
2022-09-13T04:43:01.145Z,15969.03
2022-09-13T04:44:03.768Z,14972.88
2022-09-13T04:45:06.613Z,15306.19
2022-09-13T04:46:08.762Z,13323.34
2022-09-13T04:47:10.970Z,15634.88
2022-09-13T04:48:13.070Z,15303.72
2022-09-13T04:49:16.623Z,13325.53
2022-09-13T04:50:18.774Z,11672.00
2022-09-13T04:51:21.833Z,7718.00
2022-09-13T04:52:24.074Z,6070.97
2022-09-13T04:53:26.187Z,6072.00
2022-09-13T04:54:28.367Z,5084.41
2022-09-13T04:55:30.520Z,1138.56
2022-09-13T04:56:32.857Z,153.13
2022-09-13T04:57:34.943Z,1795.69
2022-09-13T04:58:37.179Z,5085.13
2022-09-13T04:59:39.338Z,6073.22
2022-09-13T05:00:41.484Z,8047.91
2022-09-13T05:01:44.121Z,7389.78
2022-09-13T05:02:46.397Z,7390.03
2022-09-13T05:03:48.595Z,8379.59
2022-09-13T05:04:50.770Z,10355.44
2022-09-13T05:05:52.893Z,10686.94
2022-09-13T05:06:55.032Z,11016.28
2022-09-13T05:07:57.233Z,10026.59
2022-09-13T05:08:59.406Z,10687.16
2022-09-13T05:10:01.497Z,12665.75
2022-09-13T05:11:04.295Z,10356.78
2022-09-13T05:12:06.586Z,12997.84
2022-09-13T05:13:08.781Z,14979.13
2022-09-13T05:14:11.401Z,16302.16
2022-09-13T05:15:13.685Z,13656.88
2022-09-13T05:16:15.827Z,13328.16
2022-09-13T05:17:17.951Z,13327.25
2022-09-13T05:18:20.055Z,10357.72
2022-09-13T05:19:22.326Z,9698.91
2022-09-13T05:20:24.558Z,8377.44
2022-09-13T05:21:27.885Z,3440.50
2022-09-13T05:22:29.995Z,3440.31
2022-09-13T05:23:32.559Z,3111.56
2022-09-13T05:24:34.718Z,1466.97
2022-09-13T05:25:36.874Z,-1161.47
2022-09-13T05:26:39.077Z,-2148.66
2022-09-13T05:27:41.185Z,1137.81
2022-09-13T05:28:43.741Z,151.44
2022-09-13T05:29:45.859Z,2453.50
2022-09-13T05:31:01.832Z,-1493.44
2022-09-13T05:32:04.387Z,-1491.59
2022-09-13T05:33:06.540Z,-177.47
2022-09-13T05:34:14.141Z,-1493.81
2022-09-13T05:35:16.867Z,-177.28
2022-09-13T05:36:19.698Z,-177.38
2022-09-13T05:37:21.885Z,-1163.19
2022-09-13T05:38:24.567Z,-2806.84
2022-09-13T05:39:33.863Z,-2149.31
2022-09-13T05:40:46.713Z,-2477.09
2022-09-13T05:41:49.005Z,-2806.19
2022-09-13T05:42:53.109Z,-2808.09
2022-09-13T05:43:59.398Z,-1492.69
2022-09-13T05:45:05.440Z,-506.84
2022-09-13T05:46:11.657Z,-837.13
2022-09-13T05:47:14.281Z,-506.84
2022-09-13T05:48:16.472Z,-1492.22
2022-09-13T05:49:18.633Z,-1492.03
2022-09-13T05:50:45.088Z,-2806.78
2022-09-13T05:51:43.397Z,-506.94
2022-09-13T05:52:51.108Z,808.50
2022-09-13T05:53:54.737Z,-835.44
2022-09-13T05:54:56.860Z,-5757.91
2022-09-13T05:55:59.307Z,-6743.63
2022-09-13T05:57:01.471Z,-5431.84
2022-09-13T05:58:03.848Z,-7727.97
2022-09-13T05:59:05.971Z,-8056.44
2022-09-13T06:00:08.672Z,-6419.66
2022-09-13T06:01:16.396Z,-5435.31
2022-09-13T06:02:18.587Z,-4121.13
2022-09-13T06:03:20.824Z,-3790.38
2022-09-13T06:04:22.996Z,-5105.72
2022-09-13T06:05:29.859Z,-5104.91
2022-09-13T06:06:35.369Z,-5108.09
2022-09-13T06:07:40.817Z,-3795.41
2022-09-13T06:08:43.523Z,-836.38
2022-09-13T06:09:45.685Z,-835.78
2022-09-13T06:10:55.751Z,-508.47
2022-09-13T06:11:57.852Z,1466.38
2022-09-13T06:13:00.095Z,479.56
2022-09-13T06:14:02.275Z,-1164.44
2022-09-13T06:15:04.714Z,-1822.03
2022-09-13T06:16:09.784Z,-3137.53
2022-09-13T06:17:12.079Z,-1822.38
2022-09-13T06:18:14.241Z,-1165.31
2022-09-13T06:19:16.343Z,-1165.03
2022-09-13T06:20:18.510Z,-836.28
2022-09-13T06:21:26.964Z,-836.94
2022-09-13T06:22:33.287Z,-1164.94
2022-09-13T06:23:35.713Z,-3792.75
2022-09-13T06:24:38.385Z,-2808.75
2022-09-13T06:25:41.099Z,-1494.41
2022-09-13T06:26:43.217Z,-1165.06
2022-09-13T06:27:45.437Z,-507.25
2022-09-13T06:28:49.135Z,-3465.94
2022-09-13T06:29:51.395Z,-2480.69
2022-09-13T06:30:59.878Z,-3797.25
2022-09-13T06:32:03.554Z,-1823.41
2022-09-13T06:33:05.691Z,-3137.13
2022-09-13T06:34:07.880Z,-3464.97
2022-09-13T06:35:10.026Z,-4123.28
2022-09-13T06:36:18.312Z,-6097.38
2022-09-13T06:37:21.643Z,-4779.91
2022-09-13T06:38:23.979Z,-3138.53
2022-09-13T06:39:26.100Z,-2480.78
2022-09-13T06:40:28.893Z,-3138.72
2022-09-13T06:41:31.295Z,-3796.31
2022-09-13T06:42:35.245Z,-3140.91
2022-09-13T06:43:38.617Z,-2154.81
2022-09-13T06:44:40.732Z,-837.38
2022-09-13T06:45:42.850Z,-1495.00
2022-09-13T06:46:45.145Z,-4781.94
2022-09-13T06:47:47.286Z,-5767.19
2022-09-13T06:48:49.626Z,-3467.13
2022-09-13T06:49:51.937Z,-4452.72
2022-09-13T06:50:58.472Z,-5113.28
2022-09-13T06:52:00.598Z,-3465.88
2022-09-13T06:53:02.884Z,-3795.50
2022-09-13T06:54:05.916Z,-3468.44
2022-09-13T06:55:12.453Z,-1824.47
2022-09-13T06:56:21.300Z,-2154.88
2022-09-13T06:57:23.427Z,-179.13
2022-09-13T06:58:25.591Z,150.38
2022-09-13T06:59:27.669Z,-1823.56
2022-09-13T07:00:29.794Z,-508.47
2022-09-13T07:01:34.680Z,477.97
2022-09-13T07:02:36.905Z,3112.59
2022-09-13T07:03:40.951Z,1795.13
2022-09-13T07:04:43.117Z,5420.44
2022-09-13T07:05:45.224Z,6740.19
2022-09-13T07:06:49.492Z,4762.94
2022-09-13T07:07:51.633Z,9049.34
2022-09-13T07:08:54.885Z,6740.03
2022-09-13T07:09:57.041Z,11362.97
2022-09-13T07:10:59.151Z,14337.13
2022-09-13T07:12:01.445Z,14339.31
2022-09-13T07:13:03.597Z,16324.63
2022-09-13T07:14:09.075Z,18310.28
2022-09-13T07:15:11.455Z,15658.72
2022-09-13T07:16:13.641Z,17315.53
2022-09-13T07:17:15.769Z,19640.66
2022-09-13T07:18:17.898Z,20292.44
2022-09-13T07:19:26.500Z,14674.47
2022-09-13T07:20:28.838Z,17980.59
2022-09-13T07:21:32.344Z,17646.19
2022-09-13T07:22:34.443Z,16981.41
2022-09-13T07:23:39.382Z,17321.22
2022-09-13T07:24:41.505Z,13343.66
2022-09-13T07:25:43.650Z,15329.88
2022-09-13T07:26:46.729Z,15329.97
2022-09-13T07:27:48.828Z,13672.25
2022-09-13T07:28:54.753Z,11034.59
2022-09-13T07:29:57.826Z,12018.69
2022-09-13T07:31:13.411Z,11036.84
2022-09-13T07:32:15.654Z,11688.03
2022-09-13T07:33:18.022Z,5417.78
2022-09-13T07:34:23.117Z,1465.78
2022-09-13T07:35:25.189Z,3112.41
2022-09-13T07:36:29.105Z,-5437.19
2022-09-13T07:37:31.229Z,-4448.50
2022-09-13T07:38:37.311Z,-10361.03
2022-09-13T07:39:39.695Z,-8056.59
2022-09-13T07:40:41.879Z,-9044.53
2022-09-13T07:41:44.605Z,-5105.47
2022-09-13T07:42:46.791Z,-3466.19
2022-09-13T07:43:49.725Z,-179.47
2022-09-13T07:44:51.790Z,2453.69
2022-09-13T07:46:01.601Z,-1494.69
2022-09-13T07:47:03.924Z,-3135.41
2022-09-13T07:48:06.086Z,-1494.56
2022-09-13T07:49:08.284Z,2124.53
2022-09-13T07:50:10.415Z,3441.44
2022-09-13T07:51:13.879Z,4100.06
2022-09-13T07:52:16.067Z,7722.28
2022-09-13T07:53:18.162Z,4099.66
2022-09-13T07:54:20.731Z,3770.88
2022-09-13T07:55:22.926Z,4759.78
2022-09-13T07:56:28.023Z,8059.09
2022-09-13T07:57:30.172Z,8057.00
2022-09-13T07:58:34.011Z,8057.34
2022-09-13T07:59:36.141Z,5088.81
2022-09-13T08:00:38.275Z,5089.13
2022-09-13T08:01:43.219Z,4431.22
2022-09-13T08:02:45.455Z,6739.13
2022-09-13T08:03:53.232Z,6079.59
2022-09-13T08:04:55.823Z,7068.22
2022-09-13T08:05:58.000Z,7067.66
2022-09-13T08:07:00.178Z,8718.94
2022-09-13T08:08:02.385Z,9710.28
2022-09-13T08:09:06.317Z,12025.78
2022-09-13T08:10:08.844Z,11355.16
2022-09-13T08:11:16.067Z,4760.41
2022-09-13T08:12:18.174Z,5748.13
2022-09-13T08:13:20.651Z,5090.34
2022-09-13T08:14:24.081Z,7400.38
2022-09-13T08:15:26.852Z,9714.00
2022-09-13T08:16:30.765Z,18312.41
2022-09-13T08:17:32.854Z,23279.13
2022-09-13T08:18:34.961Z,22958.84
2022-09-13T08:19:37.087Z,22970.69
2022-09-13T08:20:39.877Z,33633.69
2022-09-13T08:21:43.533Z,54375.75
2022-09-13T08:22:45.930Z,83009.16
2022-09-13T08:23:48.333Z,123727.22
2022-09-13T08:24:50.713Z,139451.25
2022-09-13T08:25:53.797Z,151142.25
2022-09-13T08:26:56.051Z,140807.34
2022-09-13T08:27:58.171Z,147099.13
2022-09-13T08:29:02.033Z,149290.41
2022-09-13T08:30:05.403Z,151259.50
2022-09-13T08:31:08.829Z,151385.34
2022-09-13T08:32:11.075Z,151404.91
2022-09-13T08:33:13.599Z,151261.94
2022-09-13T08:34:16.651Z,151335.22
2022-09-13T08:35:18.718Z,151384.13
2022-09-13T08:36:23.826Z,151428.16
2022-09-13T08:37:25.923Z,151382.91
2022-09-13T08:38:28.981Z,151367.00
2022-09-13T08:39:33.455Z,151489.25
2022-09-13T08:40:44.957Z,151534.50
2022-09-13T08:42:11.600Z,151721.59
2022-09-13T08:43:32.000Z,151538.16
2022-09-13T08:44:38.435Z,151572.44
2022-09-13T08:45:40.983Z,151288.84
2022-09-13T08:46:46.872Z,151203.25
2022-09-13T08:48:13.963Z,151356.03
2022-09-13T08:49:32.123Z,151298.59
2022-09-13T08:50:36.293Z,151292.50
2022-09-13T08:51:47.377Z,151305.97
2022-09-13T08:53:19.802Z,151301.03
2022-09-13T08:54:22.293Z,151121.47
2022-09-13T08:55:49.249Z,151217.94
2022-09-13T08:57:17.748Z,151171.50
2022-09-13T08:58:50.920Z,151217.94
2022-09-13T09:00:05.210Z,151181.31
2022-09-13T09:01:33.989Z,151079.91
2022-09-13T09:02:48.317Z,151067.69
2022-09-13T09:04:25.633Z,151066.47
2022-09-13T09:05:31.280Z,150985.91
2022-09-13T09:06:35.513Z,151049.38
2022-09-13T09:07:46.237Z,151139.81
2022-09-13T09:08:55.381Z,151205.75
2022-09-13T09:10:23.352Z,151422.03
2022-09-13T09:11:28.386Z,151638.44
2022-09-13T09:12:43.036Z,151777.84
2022-09-13T09:13:57.046Z,151807.22
2022-09-13T09:15:05.242Z,151792.50
2022-09-13T09:16:24.124Z,151808.44
2022-09-13T09:17:31.005Z,151850.00
2022-09-13T09:18:39.620Z,151917.31
2022-09-13T09:19:46.403Z,152064.19
2022-09-13T09:20:51.970Z,152144.94
2022-09-13T09:21:54.241Z,152279.59
2022-09-13T09:22:56.410Z,152229.44
2022-09-13T09:24:02.702Z,152361.69
2022-09-13T09:25:05.409Z,152451.09
2022-09-13T09:26:17.615Z,152770.88
2022-09-13T09:27:21.449Z,152616.47
2022-09-13T09:28:25.432Z,152783.13
2022-09-13T09:29:32.680Z,152750.03
2022-09-13T09:30:46.134Z,153061.44
2022-09-13T09:32:25.486Z,153022.22
2022-09-13T09:33:44.554Z,153039.34
2022-09-13T09:35:14.061Z,152813.75
2022-09-13T09:36:28.078Z,152616.47
2022-09-13T09:37:31.500Z,152553.94
2022-09-13T09:38:42.696Z,152299.22
2022-09-13T09:39:45.178Z,152070.28
2022-09-13T09:40:47.421Z,151912.44
2022-09-13T09:41:49.622Z,151775.41
2022-09-13T09:42:51.851Z,151864.69
2022-09-13T09:44:28.668Z,151765.66
2022-09-13T09:45:34.647Z,151628.63
2022-09-13T09:46:40.243Z,151725.25
2022-09-13T09:47:51.441Z,151485.59
2022-09-13T09:49:02.215Z,151650.66
2022-09-13T09:50:10.943Z,151646.97
2022-09-13T09:51:16.304Z,151650.66
2022-09-13T09:52:23.278Z,151831.69
2022-09-13T09:53:36.976Z,151960.13
2022-09-13T09:54:50.362Z,151912.44
2022-09-13T09:56:12.169Z,152213.50
2022-09-13T09:57:14.415Z,152193.94
2022-09-13T09:58:16.992Z,152529.47
2022-09-13T09:59:29.069Z,152610.34
2022-09-13T10:00:34.292Z,152615.22
2022-09-13T10:01:38.282Z,152941.25
2022-09-13T10:02:44.704Z,152986.69
2022-09-13T10:03:52.665Z,153003.81
2022-09-13T10:05:00.733Z,153059.00
2022-09-13T10:06:18.555Z,152685.06
2022-09-13T10:07:30.317Z,153089.63
2022-09-13T10:08:36.970Z,152644.63
2022-09-13T10:09:39.625Z,152433.91
2022-09-13T10:10:52.775Z,152529.47
2022-09-13T10:11:57.663Z,152514.75
2022-09-13T10:13:00.798Z,152550.28
2022-09-13T10:14:03.919Z,152628.72
2022-09-13T10:15:17.691Z,152683.81
2022-09-13T10:16:29.706Z,152904.47
2022-09-13T10:17:31.900Z,152906.94
2022-09-13T10:18:45.414Z,152807.63
2022-09-13T10:19:54.335Z,152830.91
2022-09-13T10:21:19.660Z,152976.84
2022-09-13T10:22:23.001Z,152794.16
2022-09-13T10:23:25.175Z,152884.84
2022-09-13T10:24:28.423Z,153117.84
2022-09-13T10:25:31.855Z,152773.31
2022-09-13T10:26:34.393Z,152705.94
2022-09-13T10:27:42.779Z,152603.00
2022-09-13T10:28:59.432Z,152610.34
2022-09-13T10:30:04.298Z,152436.38
2022-09-13T10:31:14.843Z,152542.94
2022-09-13T10:32:19.812Z,152318.81
2022-09-13T10:33:30.145Z,152192.69
2022-09-13T10:34:36.312Z,152138.81
2022-09-13T10:35:38.614Z,151982.16
2022-09-13T10:36:59.340Z,152007.84
2022-09-13T10:38:01.688Z,151929.53
2022-09-13T10:39:07.285Z,152113.13
2022-09-13T10:40:28.969Z,152223.28
2022-09-13T10:41:35.124Z,152049.47
2022-09-13T10:42:37.254Z,151994.38
2022-09-13T10:43:39.786Z,151912.44
2022-09-13T10:44:58.268Z,151907.53
2022-09-13T10:46:03.711Z,151850.00
2022-09-13T10:47:12.421Z,152002.97
2022-09-13T10:48:16.955Z,151879.41
2022-09-13T10:49:47.226Z,151809.66
2022-09-13T10:51:04.648Z,151851.22
2022-09-13T10:52:27.188Z,151968.72
2022-09-13T10:53:41.053Z,152100.91
2022-09-13T10:54:43.434Z,152099.66
2022-09-13T10:55:53.936Z,152377.59
2022-09-13T10:56:56.381Z,152122.88
2022-09-13T10:58:07.626Z,152245.31
2022-09-13T10:59:30.730Z,152335.97
2022-09-13T11:01:05.173Z,152558.88
2022-09-13T11:02:11.622Z,152629.97
2022-09-13T11:03:37.690Z,152808.84
2022-09-13T11:04:56.722Z,152605.44
2022-09-13T11:06:10.658Z,152899.59
2022-09-13T11:07:26.271Z,153044.25
2022-09-13T11:08:31.475Z,153097.03
2022-09-13T11:09:39.878Z,153272.41
2022-09-13T11:11:02.959Z,153209.81
2022-09-13T11:12:43.151Z,153495.75
2022-09-13T11:14:03.237Z,153090.84
2022-09-13T11:15:18.786Z,153073.69
2022-09-13T11:16:39.709Z,152786.78
2022-09-13T11:18:09.756Z,152642.19
2022-09-13T11:19:17.870Z,152715.72
2022-09-13T11:20:32.302Z,152595.66
2022-09-13T11:22:13.270Z,152449.84
2022-09-13T11:23:30.326Z,152264.94
2022-09-13T11:24:54.122Z,152098.44
2022-09-13T11:26:19.490Z,152223.28
2022-09-13T11:27:37.759Z,151908.75
2022-09-13T11:29:10.636Z,152149.81
2022-09-13T11:30:19.555Z,152184.13
2022-09-13T11:31:40.450Z,152260.03
2022-09-13T11:32:55.862Z,152380.03
2022-09-13T11:34:10.274Z,152291.81
2022-09-13T11:35:27.043Z,152058.03
2022-09-13T11:37:04.683Z,151667.78
2022-09-13T11:38:25.487Z,152049.47
2022-09-13T11:39:28.572Z,152108.22
2022-09-13T11:40:58.586Z,152370.25
2022-09-13T11:42:25.639Z,152389.81
2022-09-13T11:43:52.742Z,152728.00
2022-09-13T11:45:19.361Z,152888.56
2022-09-13T11:46:29.083Z,152762.31
2022-09-13T11:47:53.063Z,152975.59
2022-09-13T11:49:21.977Z,153088.41
2022-09-13T11:50:40.636Z,152557.66
2022-09-13T11:52:12.984Z,152816.19
2022-09-13T11:53:40.905Z,153056.53
2022-09-13T11:55:06.478Z,152826.03
2022-09-13T11:56:19.732Z,153127.69
2022-09-13T11:57:31.320Z,152881.19
2022-09-13T11:58:39.580Z,152938.81
2022-09-13T11:59:53.383Z,152978.06
2022-09-13T12:01:01.676Z,153019.78
2022-09-13T12:02:24.391Z,153084.69
2022-09-13T12:03:31.026Z,153176.69
2022-09-13T12:05:20.450Z,153126.47
2022-09-13T12:06:28.264Z,153133.81
2022-09-13T12:07:34.978Z,152850.56
2022-09-13T12:08:42.762Z,153013.59
2022-09-13T12:09:56.638Z,153240.50
2022-09-13T12:11:16.216Z,153186.53
2022-09-13T12:12:21.607Z,153098.25
2022-09-13T12:13:36.130Z,153032.00
2022-09-13T12:15:07.884Z,152822.34
2022-09-13T12:16:23.358Z,152448.63
2022-09-13T12:17:30.857Z,152274.72
2022-09-13T12:18:41.247Z,152365.34
2022-09-13T12:19:47.709Z,152262.50
2022-09-13T12:21:00.897Z,152236.78
2022-09-13T12:22:03.917Z,152251.44
2022-09-13T12:23:14.351Z,152419.19
2022-09-13T12:24:22.154Z,152731.69
2022-09-13T12:25:39.229Z,152653.19
2022-09-13T12:27:05.773Z,152848.09
2022-09-13T12:28:28.021Z,152720.63
2022-09-13T12:29:51.482Z,152715.72
2022-09-13T12:31:10.095Z,152436.38
2022-09-13T12:32:13.679Z,152299.22
2022-09-13T12:33:16.570Z,152277.16
2022-09-13T12:34:28.604Z,152301.69
2022-09-13T12:35:36.446Z,152189.00
2022-09-13T12:36:50.208Z,152323.69
2022-09-13T12:38:10.366Z,152240.44
2022-09-13T12:39:45.005Z,152284.50
2022-09-13T12:41:13.870Z,152174.34
2022-09-13T12:42:22.229Z,152209.84
2022-09-13T12:43:47.400Z,152470.69
2022-09-13T12:45:33.633Z,152752.47
2022-09-13T12:46:57.796Z,153092.13
2022-09-13T12:48:30.799Z,153112.94
2022-09-13T12:51:50.772Z,153294.50
2022-09-13T12:53:01.739Z,153166.91
2022-09-13T12:54:22.518Z,153322.69
2022-09-13T12:55:50.745Z,153135.03
2022-09-13T12:57:08.826Z,153282.19
2022-09-13T12:58:34.316Z,153202.47
2022-09-13T12:59:58.921Z,153338.63
2022-09-13T13:01:11.992Z,153109.28
2022-09-13T13:02:44.373Z,153154.66
2022-09-13T13:03:50.235Z,153052.88
2022-09-13T13:04:55.698Z,152808.84
2022-09-13T13:06:17.685Z,152178.03
2022-09-13T13:07:23.283Z,152032.38
2022-09-13T13:08:29.593Z,152195.16
2022-09-13T13:09:44.555Z,152098.44
2022-09-13T13:11:11.628Z,151928.31
2022-09-13T13:12:38.902Z,151990.69
2022-09-13T13:13:44.759Z,151980.94
2022-09-13T13:14:48.238Z,152120.44
2022-09-13T13:15:50.510Z,152087.41
2022-09-13T13:16:54.412Z,151978.47
2022-09-13T13:17:57.272Z,152213.50
2022-09-13T13:19:26.109Z,152242.88
2022-09-13T13:21:05.770Z,152211.06
2022-09-13T13:22:42.132Z,152238.00
2022-09-13T13:23:45.621Z,152285.72
2022-09-13T13:24:48.284Z,152316.38
2022-09-13T13:26:01.178Z,152398.41
2022-09-13T13:27:34.329Z,152277.16
2022-09-13T13:28:45.684Z,152425.34
2022-09-13T13:30:26.426Z,152397.19
2022-09-13T13:31:29.748Z,152375.13